Página principal
METAR-TAF:

METAR-TAF

Aeroportos :

Aeroporto Internacional de Bagdad

Bagdá, Iraque

latitude: 33-15-45N, longitude: 44-14-04E, altura: 35 m

Observação actual do tempo

O boletim foi feito há 17 minutos, às 06:00 UTC
Vento 6 kt de nor-noroeste
Temperatura 35°C
Humidade 23%
Pressão 1008 hPa
Visibilidade 10 km ou mais
sem nuvens abaixo de 1500 metros e sem cumulonimbus

METAR: ORBI 260600Z 34006KT CAVOK 35/11 Q1008 NOSIG

Hora: 09:17 (06:17 UTC)

Previsão

O boletim foi feito há 2 horas e 17 minutos, às 04:00 UTC
Previsão válida de 26 às 06 UTC a 27 às 06 UTC
Vento 10 kt de oes-noroeste
Visibilidade: 8000 m
Tornando-se
de 26 às 15 UTC a 26 às 17 UTC
Vento 8 kt de este

TAF: ORBI 260400Z 2606/2706 30010KT 8000 NSC BECMG 2615/2617 10008KT

Observações e previsões do tempo de mais de 4000 aeroportos (mensagens METAR e TAF).

As estações disponíveis são os pontos amarelos e vermelhos sobre o mapa.

Mova o rato sobre o mapa para ver o nome da estação.

Depois clique no ponto para visualizar as observações e previsões meteorológicas.

Para alterar o mapa : clique nos botões verdes com uma cruz preta para aumentar o zoom; no botão verde com uma pitada de zoom; ou nas setas verdes para mapas adjacentes.


METAR-TAF: